Terminal Aerodrome Forecast
Issued by NWS

Home | Current Version | Previous Version | Text Only | Print | Product List | Glossary On
Versions: 1 2 3 4 5 6 7 8 9 10 11 12
000
FTAK31 PAJN 051700
TAFAKT
TAF
PAKT 051737Z 0518/0618 34014KT P6SM SCT200
     FM060400 32008KT P6SM SCT200
     FM061500 34012KT P6SM FEW200
      AMD LTD TO CLD VIS AND WIND 0606/0615=

USA.gov is the U.S. government's official web portal to all federal, state and local government web resources and services.